createdAt,value
2022-07-25T00:00:06.770Z,0.00
2022-07-25T00:01:06.902Z,0.00
2022-07-25T00:02:07.277Z,0.00
2022-07-25T00:03:06.576Z,0.00
2022-07-25T00:04:06.897Z,0.00
2022-07-25T00:05:06.530Z,0.00
2022-07-25T00:06:06.575Z,0.00
2022-07-25T00:07:06.481Z,0.00
2022-07-25T00:08:06.450Z,0.00
2022-07-25T00:09:06.434Z,0.00
2022-07-25T00:10:06.386Z,0.00
2022-07-25T00:11:06.420Z,0.00
2022-07-25T00:12:06.376Z,0.00
2022-07-25T00:13:06.288Z,0.00
2022-07-25T00:14:06.557Z,0.00
2022-07-25T00:15:06.239Z,0.00
2022-07-25T00:16:06.292Z,0.00
2022-07-25T00:17:06.233Z,0.00
2022-07-25T00:18:06.174Z,0.00
2022-07-25T00:19:06.127Z,0.00
2022-07-25T00:20:06.094Z,0.00
2022-07-25T00:21:06.063Z,0.00
2022-07-25T00:22:06.098Z,0.00
2022-07-25T00:23:06.087Z,0.00
2022-07-25T00:24:06.260Z,0.00
2022-07-25T00:25:05.988Z,0.00
2022-07-25T00:26:05.925Z,0.00
2022-07-25T00:27:05.894Z,0.00
2022-07-25T00:28:05.923Z,0.00
2022-07-25T00:29:05.913Z,0.00
2022-07-25T00:30:05.809Z,0.00
2022-07-25T00:31:05.817Z,0.00
2022-07-25T00:32:05.770Z,0.00
2022-07-25T00:33:05.723Z,0.00
2022-07-25T00:34:06.044Z,0.00
2022-07-25T00:35:05.744Z,0.00
2022-07-25T00:36:05.647Z,0.00
2022-07-25T00:37:05.624Z,0.00
2022-07-25T00:38:05.649Z,0.00
2022-07-25T00:39:05.550Z,0.00
2022-07-25T00:40:05.540Z,0.00
2022-07-25T00:41:05.636Z,0.00
2022-07-25T00:42:05.479Z,0.00
2022-07-25T00:43:05.486Z,0.00
2022-07-25T00:44:05.778Z,0.00
2022-07-25T00:45:05.445Z,0.00
2022-07-25T00:46:05.412Z,0.00
2022-07-25T00:47:05.394Z,0.00
2022-07-25T00:48:05.295Z,0.00
2022-07-25T00:49:05.426Z,0.00
2022-07-25T00:50:05.242Z,0.00
2022-07-25T00:51:05.209Z,0.00
2022-07-25T00:52:05.177Z,0.00
2022-07-25T00:53:05.237Z,0.00
2022-07-25T00:54:05.341Z,0.00
2022-07-25T00:55:05.105Z,0.00
2022-07-25T00:56:05.067Z,0.00
2022-07-25T00:57:05.035Z,0.00
2022-07-25T00:58:05.012Z,0.00
2022-07-25T00:59:05.057Z,0.00
2022-07-25T01:00:04.954Z,0.00
2022-07-25T01:01:04.922Z,0.00
2022-07-25T01:02:04.977Z,0.00
2022-07-25T01:03:04.905Z,0.00
2022-07-25T01:04:05.205Z,0.00
2022-07-25T01:05:04.872Z,0.00
2022-07-25T01:06:04.789Z,0.00
2022-07-25T01:07:04.753Z,0.00
2022-07-25T01:08:04.718Z,0.00
2022-07-25T01:09:04.692Z,0.00
2022-07-25T01:10:04.722Z,0.00
2022-07-25T01:11:04.641Z,0.00
2022-07-25T01:12:04.611Z,0.00
2022-07-25T01:13:04.642Z,0.00
2022-07-25T01:14:04.905Z,0.00
2022-07-25T01:15:04.526Z,0.00
2022-07-25T01:16:04.539Z,0.00
2022-07-25T01:17:04.467Z,0.00
2022-07-25T01:18:04.435Z,0.00
2022-07-25T01:19:04.498Z,0.00
2022-07-25T01:20:04.397Z,0.00
2022-07-25T01:21:04.350Z,0.00
2022-07-25T01:22:04.320Z,0.00
2022-07-25T01:23:04.345Z,0.00
2022-07-25T01:24:04.544Z,0.00
2022-07-25T01:25:04.278Z,0.00
2022-07-25T01:26:04.209Z,0.00
2022-07-25T01:27:04.253Z,0.00
2022-07-25T01:28:04.229Z,0.00
2022-07-25T01:29:04.127Z,0.00
2022-07-25T01:30:04.094Z,0.00
2022-07-25T01:31:04.122Z,0.00
2022-07-25T01:32:04.036Z,0.00
2022-07-25T01:33:06.658Z,0.00
2022-07-25T01:34:04.381Z,0.00
2022-07-25T01:35:04.006Z,0.00
2022-07-25T01:36:03.923Z,0.00
2022-07-25T01:37:03.892Z,0.00
2022-07-25T01:38:03.866Z,0.00
2022-07-25T01:39:03.910Z,0.00
2022-07-25T01:40:03.822Z,0.00
2022-07-25T01:41:03.788Z,0.00
2022-07-25T01:42:03.748Z,0.00
2022-07-25T01:43:03.725Z,0.00
2022-07-25T01:44:04.021Z,0.00
2022-07-25T01:45:03.741Z,0.00
2022-07-25T01:46:03.667Z,0.00
2022-07-25T01:47:03.611Z,0.00
2022-07-25T01:48:03.611Z,0.00
2022-07-25T01:49:03.596Z,0.00
2022-07-25T01:50:03.519Z,0.00
2022-07-25T01:51:03.549Z,0.00
2022-07-25T01:52:03.463Z,0.00
2022-07-25T01:53:03.443Z,0.00
2022-07-25T01:54:03.780Z,0.00
2022-07-25T01:55:03.387Z,0.00
2022-07-25T01:56:03.453Z,0.00
2022-07-25T01:57:03.379Z,0.00
2022-07-25T01:58:03.296Z,0.00
2022-07-25T01:59:03.292Z,0.00
2022-07-25T02:00:03.239Z,0.00
2022-07-25T02:01:03.278Z,0.00
2022-07-25T02:02:03.365Z,0.00
2022-07-25T02:03:03.143Z,0.00
2022-07-25T02:04:03.324Z,0.00
2022-07-25T02:05:03.141Z,0.00
2022-07-25T02:06:03.152Z,0.00
2022-07-25T02:07:03.033Z,0.00
2022-07-25T02:08:03.007Z,0.00
2022-07-25T02:09:02.977Z,0.00
2022-07-25T02:10:02.950Z,0.00
2022-07-25T02:11:02.916Z,0.00
2022-07-25T02:12:02.951Z,0.00
2022-07-25T02:13:02.867Z,0.00
2022-07-25T02:14:03.051Z,0.00
2022-07-25T02:15:02.857Z,0.00
2022-07-25T02:16:02.777Z,0.00
2022-07-25T02:17:02.849Z,0.00
2022-07-25T02:18:03.445Z,0.00
2022-07-25T02:19:02.690Z,0.00
2022-07-25T02:20:02.663Z,0.00
2022-07-25T02:21:02.631Z,0.00
2022-07-25T02:22:02.649Z,0.00
2022-07-25T02:23:02.644Z,0.00
2022-07-25T02:24:02.947Z,0.00
2022-07-25T02:25:02.516Z,0.00
2022-07-25T02:26:02.498Z,0.00
2022-07-25T02:27:02.459Z,0.00
2022-07-25T02:28:02.486Z,0.00
2022-07-25T02:29:02.407Z,0.00
2022-07-25T02:30:02.373Z,4.00
2022-07-25T02:31:02.386Z,4.00
2022-07-25T02:32:02.319Z,0.00
2022-07-25T02:33:02.492Z,0.00
2022-07-25T02:34:02.264Z,0.00
2022-07-25T02:35:02.288Z,4.00
2022-07-25T02:36:02.200Z,4.00
2022-07-25T02:37:02.184Z,0.00
2022-07-25T02:38:02.181Z,4.00
2022-07-25T02:39:02.368Z,4.00
2022-07-25T02:40:02.084Z,4.00
2022-07-25T02:41:02.058Z,4.00
2022-07-25T02:42:02.030Z,8.00
2022-07-25T02:43:01.996Z,4.00
2022-07-25T02:44:01.974Z,8.00
2022-07-25T02:45:02.217Z,8.00
2022-07-25T02:46:02.018Z,8.00
2022-07-25T02:47:01.885Z,8.00
2022-07-25T02:48:01.859Z,12.00
2022-07-25T02:49:01.940Z,12.00
2022-07-25T02:50:01.803Z,12.00
2022-07-25T02:51:01.969Z,20.00
2022-07-25T02:52:01.743Z,20.00
2022-07-25T02:53:01.713Z,24.00
2022-07-25T02:54:01.684Z,24.00
2022-07-25T02:55:04.840Z,32.00
2022-07-25T02:56:01.676Z,32.00
2022-07-25T02:57:01.659Z,36.00
2022-07-25T02:58:01.567Z,44.00
2022-07-25T02:59:01.548Z,52.00
2022-07-25T03:00:01.511Z,56.00
2022-07-25T03:01:01.522Z,64.00
2022-07-25T03:02:01.530Z,72.00
2022-07-25T03:03:01.433Z,84.00
2022-07-25T03:04:01.438Z,88.00
2022-07-25T03:05:01.371Z,96.00
2022-07-25T03:06:01.348Z,108.00
2022-07-25T03:07:01.315Z,128.00
2022-07-25T03:08:01.356Z,148.00
2022-07-25T03:09:01.254Z,156.00
2022-07-25T03:10:01.260Z,164.00
2022-07-25T03:11:01.197Z,168.00
2022-07-25T03:12:01.173Z,180.00
2022-07-25T03:13:01.137Z,192.00
2022-07-25T03:14:01.213Z,208.00
2022-07-25T03:15:01.093Z,224.00
2022-07-25T03:16:01.075Z,236.00
2022-07-25T03:17:01.046Z,248.00
2022-07-25T03:18:00.994Z,264.00
2022-07-25T03:19:00.962Z,284.00
2022-07-25T03:20:01.019Z,308.00
2022-07-25T03:21:00.906Z,332.00
2022-07-25T03:22:00.877Z,360.00
2022-07-25T03:23:00.856Z,388.00
2022-07-25T03:24:01.460Z,420.00
2022-07-25T03:25:00.794Z,452.00
2022-07-25T03:26:00.966Z,488.00
2022-07-25T03:27:00.731Z,528.00
2022-07-25T03:28:00.702Z,564.00
2022-07-25T03:29:00.688Z,600.00
2022-07-25T03:30:00.654Z,624.00
2022-07-25T03:31:00.614Z,648.00
2022-07-25T03:32:00.868Z,672.00
2022-07-25T03:33:00.589Z,704.00
2022-07-25T03:34:00.545Z,728.00
2022-07-25T03:35:00.503Z,740.00
2022-07-25T03:36:00.473Z,744.00
2022-07-25T03:37:00.442Z,752.00
2022-07-25T03:38:00.612Z,760.00
2022-07-25T03:39:00.413Z,764.00
2022-07-25T03:40:00.368Z,768.00
2022-07-25T03:41:00.326Z,776.00
2022-07-25T03:42:00.304Z,788.00
2022-07-25T03:43:00.276Z,816.00
2022-07-25T03:44:00.312Z,836.00
2022-07-25T03:45:00.212Z,864.00
2022-07-25T03:46:00.257Z,888.00
2022-07-25T03:47:00.162Z,916.00
2022-07-25T03:48:00.134Z,944.00
2022-07-25T03:49:00.225Z,980.00
2022-07-25T03:50:00.193Z,1016.00
2022-07-25T03:51:03.570Z,1064.00
2022-07-25T03:52:00.010Z,1112.00
2022-07-25T03:53:00.016Z,1160.00
2022-07-25T03:53:59.954Z,1212.00
2022-07-25T03:54:59.928Z,1256.00
2022-07-25T03:56:00.107Z,1288.00
2022-07-25T03:56:59.865Z,1348.00
2022-07-25T03:57:59.842Z,1424.00
2022-07-25T03:59:03.541Z,1512.00
2022-07-25T03:59:59.786Z,1632.00
2022-07-25T04:00:59.801Z,1756.00
2022-07-25T04:01:59.822Z,1828.00
2022-07-25T04:02:59.742Z,1868.00
2022-07-25T04:03:59.666Z,1888.00
2022-07-25T04:04:59.633Z,1900.00
2022-07-25T04:05:59.615Z,1904.00
2022-07-25T04:06:59.577Z,1920.00
2022-07-25T04:07:59.628Z,1972.00
2022-07-25T04:08:59.523Z,2032.00
2022-07-25T04:09:59.490Z,2068.00
2022-07-25T04:10:59.466Z,2136.00
2022-07-25T04:11:59.442Z,2244.00
2022-07-25T04:12:59.421Z,2344.00
2022-07-25T04:13:59.633Z,2384.00
2022-07-25T04:14:59.346Z,2588.00
2022-07-25T04:15:59.317Z,2948.00
2022-07-25T04:16:59.384Z,3756.00
2022-07-25T04:17:59.277Z,3688.00
2022-07-25T04:18:59.235Z,3360.00
2022-07-25T04:19:59.275Z,3668.00
2022-07-25T04:20:59.172Z,3612.00
2022-07-25T04:21:59.149Z,3572.00
2022-07-25T04:22:59.120Z,3704.00
2022-07-25T04:23:59.090Z,3940.00
2022-07-25T04:24:59.059Z,4288.00
2022-07-25T04:25:59.153Z,4188.00
2022-07-25T04:26:59.003Z,3964.00
2022-07-25T04:27:58.979Z,3944.00
2022-07-25T04:28:58.956Z,3760.00
2022-07-25T04:29:58.922Z,3628.00
2022-07-25T04:30:58.890Z,3484.00
2022-07-25T04:31:59.208Z,3384.00
2022-07-25T04:32:58.837Z,3392.00
2022-07-25T04:33:58.808Z,3476.00
2022-07-25T04:34:58.891Z,3656.00
2022-07-25T04:35:58.750Z,4396.00
2022-07-25T04:36:58.729Z,4752.00
2022-07-25T04:37:58.778Z,3960.00
2022-07-25T04:38:58.667Z,3788.00
2022-07-25T04:39:58.637Z,4172.00
2022-07-25T04:41:00.483Z,5324.00
2022-07-25T04:41:58.584Z,5620.00
2022-07-25T04:42:58.559Z,4596.00
2022-07-25T04:43:59.483Z,4016.00
2022-07-25T04:44:58.506Z,3796.00
2022-07-25T04:45:58.564Z,3844.00
2022-07-25T04:46:58.443Z,3868.00
2022-07-25T04:47:58.417Z,3856.00
2022-07-25T04:48:58.461Z,3896.00
2022-07-25T04:49:58.437Z,3888.00
2022-07-25T04:50:58.341Z,3936.00
2022-07-25T04:51:58.309Z,4008.00
2022-07-25T04:52:58.281Z,4124.00
2022-07-25T04:53:58.255Z,4096.00
2022-07-25T04:54:58.226Z,4112.00
2022-07-25T04:55:58.293Z,4112.00
2022-07-25T04:56:58.169Z,4024.00
2022-07-25T04:57:58.142Z,4060.00
2022-07-25T04:59:01.856Z,4028.00
2022-07-25T04:59:58.084Z,4064.00
2022-07-25T05:00:58.082Z,4124.00
2022-07-25T05:01:58.298Z,4204.00
2022-07-25T05:02:58.000Z,4228.00
2022-07-25T05:03:57.974Z,4336.00
2022-07-25T05:04:57.951Z,4376.00
2022-07-25T05:05:57.926Z,4240.00
2022-07-25T05:06:57.895Z,4180.00
2022-07-25T05:07:58.070Z,4232.00
2022-07-25T05:08:57.837Z,4484.00
2022-07-25T05:09:57.818Z,4584.00
2022-07-25T05:10:57.787Z,4780.00
2022-07-25T05:11:57.758Z,5564.00
2022-07-25T05:13:00.492Z,6604.00
2022-07-25T05:13:57.787Z,6880.00
2022-07-25T05:14:57.683Z,7076.00
2022-07-25T05:15:57.727Z,8212.00
2022-07-25T05:16:57.625Z,6712.00
2022-07-25T05:17:57.611Z,5148.00
2022-07-25T05:18:57.576Z,5760.00
2022-07-25T05:19:57.631Z,6244.00
2022-07-25T05:20:57.518Z,6096.00
2022-07-25T05:21:57.487Z,5772.00
2022-07-25T05:22:57.475Z,5180.00
2022-07-25T05:23:57.433Z,5916.00
2022-07-25T05:24:57.406Z,8760.00
2022-07-25T05:25:57.445Z,12424.00
2022-07-25T05:26:57.390Z,11408.00
2022-07-25T05:27:57.341Z,10008.00
2022-07-25T05:28:57.305Z,12096.00
2022-07-25T05:29:57.269Z,15284.00
2022-07-25T05:30:57.250Z,19968.00
2022-07-25T05:31:57.337Z,20224.00
2022-07-25T05:32:57.199Z,18304.00
2022-07-25T05:33:57.173Z,13064.00
2022-07-25T05:34:57.144Z,10188.00
2022-07-25T05:35:57.120Z,9512.00
2022-07-25T05:36:57.093Z,7540.00
2022-07-25T05:37:57.173Z,5632.00
2022-07-25T05:38:57.038Z,6352.00
2022-07-25T05:39:57.014Z,5452.00
2022-07-25T05:40:56.999Z,5816.00
2022-07-25T05:41:56.968Z,8380.00
2022-07-25T05:43:00.931Z,7092.00
2022-07-25T05:43:57.102Z,8600.00
2022-07-25T05:44:56.886Z,9220.00
2022-07-25T05:45:56.865Z,8116.00
2022-07-25T05:46:56.907Z,5956.00
2022-07-25T05:47:56.868Z,5864.00
2022-07-25T05:48:56.841Z,5804.00
2022-07-25T05:49:57.325Z,5268.00
2022-07-25T05:50:56.737Z,5424.00
2022-07-25T05:51:56.737Z,5952.00
2022-07-25T05:52:56.690Z,5472.00
2022-07-25T05:53:56.661Z,5272.00
2022-07-25T05:54:56.646Z,5168.00
2022-07-25T05:55:56.681Z,5096.00
2022-07-25T05:56:56.581Z,5040.00
2022-07-25T05:57:56.562Z,5040.00
2022-07-25T05:58:56.532Z,5036.00
2022-07-25T05:59:56.621Z,5020.00
2022-07-25T06:00:56.499Z,5020.00
2022-07-25T06:01:56.594Z,5024.00
2022-07-25T06:02:56.558Z,5028.00
2022-07-25T06:03:56.414Z,5040.00
2022-07-25T06:04:56.383Z,5044.00
2022-07-25T06:05:56.437Z,5048.00
2022-07-25T06:06:56.336Z,5044.00
2022-07-25T06:07:56.450Z,5048.00
2022-07-25T06:08:56.284Z,5056.00
2022-07-25T06:09:56.288Z,5056.00
2022-07-25T06:10:57.019Z,5060.00
2022-07-25T06:11:59.965Z,5072.00
2022-07-25T06:12:56.187Z,5072.00
2022-07-25T06:13:56.353Z,5084.00
2022-07-25T06:14:56.137Z,5088.00
2022-07-25T06:15:56.140Z,5096.00
2022-07-25T06:16:56.077Z,5092.00
2022-07-25T06:17:56.055Z,5096.00
2022-07-25T06:18:56.032Z,5104.00
2022-07-25T06:19:56.300Z,5112.00
2022-07-25T06:20:55.980Z,5112.00
2022-07-25T06:21:55.957Z,5120.00
2022-07-25T06:22:55.933Z,5140.00
2022-07-25T06:23:55.913Z,5140.00
2022-07-25T06:24:55.881Z,5148.00
2022-07-25T06:25:55.925Z,5168.00
2022-07-25T06:26:55.832Z,5184.00
2022-07-25T06:27:55.810Z,5192.00
2022-07-25T06:28:55.780Z,5204.00
2022-07-25T06:29:55.767Z,5216.00
2022-07-25T06:30:55.732Z,5220.00
2022-07-25T06:31:55.923Z,5224.00
2022-07-25T06:32:55.680Z,5236.00
2022-07-25T06:33:55.665Z,5244.00
2022-07-25T06:34:55.629Z,5252.00
2022-07-25T06:35:55.598Z,5256.00
2022-07-25T06:36:56.531Z,5264.00
2022-07-25T06:37:55.700Z,5276.00
2022-07-25T06:38:55.528Z,5284.00
2022-07-25T06:39:55.504Z,5300.00
2022-07-25T06:40:56.131Z,5312.00
2022-07-25T06:41:55.453Z,5312.00
2022-07-25T06:42:55.426Z,5320.00
2022-07-25T06:43:55.500Z,5324.00
2022-07-25T06:44:55.377Z,5328.00
2022-07-25T06:45:55.353Z,5332.00
2022-07-25T06:46:55.363Z,5344.00
2022-07-25T06:47:55.302Z,5352.00
2022-07-25T06:48:55.376Z,5364.00
2022-07-25T06:49:55.433Z,5360.00
2022-07-25T06:50:56.134Z,5376.00
2022-07-25T06:51:55.207Z,5376.00
2022-07-25T06:52:55.182Z,5380.00
2022-07-25T06:53:55.155Z,5388.00
2022-07-25T06:54:55.130Z,5388.00
2022-07-25T06:55:55.188Z,5396.00
2022-07-25T06:56:55.092Z,5396.00
2022-07-25T06:57:55.529Z,5396.00
2022-07-25T06:58:55.029Z,5392.00
2022-07-25T06:59:55.021Z,5392.00
2022-07-25T07:00:55.072Z,5396.00
2022-07-25T07:01:55.019Z,5400.00
2022-07-25T07:02:55.002Z,5400.00
2022-07-25T07:03:55.073Z,5408.00
2022-07-25T07:04:54.885Z,5412.00
2022-07-25T07:05:54.861Z,5420.00
2022-07-25T07:06:54.834Z,5420.00
2022-07-25T07:07:55.026Z,5424.00
2022-07-25T07:08:54.790Z,5420.00
2022-07-25T07:09:54.764Z,5424.00
2022-07-25T07:10:54.738Z,5428.00
2022-07-25T07:11:54.720Z,5432.00
2022-07-25T07:12:54.687Z,5428.00
2022-07-25T07:13:54.777Z,5440.00
2022-07-25T07:14:54.692Z,5432.00
2022-07-25T07:15:54.698Z,5436.00
2022-07-25T07:16:54.598Z,5436.00
2022-07-25T07:17:54.566Z,5436.00
2022-07-25T07:18:54.548Z,5428.00
2022-07-25T07:19:54.589Z,5428.00
2022-07-25T07:20:54.490Z,5436.00
2022-07-25T07:21:54.470Z,5444.00
2022-07-25T07:22:54.452Z,5456.00
2022-07-25T07:23:54.422Z,5464.00
2022-07-25T07:24:54.397Z,5472.00
2022-07-25T07:25:54.430Z,5488.00
2022-07-25T07:26:54.378Z,5496.00
2022-07-25T07:27:54.327Z,5504.00
2022-07-25T07:28:54.301Z,5508.00
2022-07-25T07:29:54.280Z,5516.00
2022-07-25T07:31:54.375Z,5524.00
2022-07-25T07:32:54.207Z,5528.00
2022-07-25T07:33:54.191Z,5536.00
2022-07-25T07:34:54.161Z,5548.00
2022-07-25T07:35:54.139Z,5564.00
2022-07-25T07:36:54.190Z,5580.00
2022-07-25T07:37:54.087Z,5596.00
2022-07-25T07:38:54.093Z,5612.00
2022-07-25T07:39:54.053Z,5640.00
2022-07-25T07:40:54.016Z,5660.00
2022-07-25T07:41:54.036Z,5680.00
2022-07-25T07:42:54.059Z,5684.00
2022-07-25T07:43:53.942Z,5692.00
2022-07-25T07:44:53.933Z,5704.00
2022-07-25T07:45:53.901Z,5712.00
2022-07-25T07:46:53.945Z,5720.00
2022-07-25T07:47:53.864Z,5732.00
2022-07-25T07:48:53.960Z,5720.00
2022-07-25T07:49:53.808Z,5724.00
2022-07-25T07:50:53.781Z,5716.00
2022-07-25T07:51:53.770Z,5708.00
2022-07-25T07:52:53.744Z,5712.00
2022-07-25T07:53:53.709Z,5704.00
2022-07-25T07:54:59.070Z,5704.00
2022-07-25T07:55:53.668Z,5696.00
2022-07-25T07:56:53.646Z,5684.00
2022-07-25T07:57:53.622Z,5664.00
2022-07-25T07:58:53.594Z,5656.00
2022-07-25T07:59:53.573Z,5648.00
2022-07-25T08:00:53.752Z,5640.00
2022-07-25T08:01:53.622Z,5636.00
2022-07-25T08:02:53.552Z,5640.00
2022-07-25T08:03:53.482Z,5644.00
2022-07-25T08:04:53.461Z,5652.00
2022-07-25T08:05:53.436Z,5664.00
2022-07-25T08:06:53.475Z,5680.00
2022-07-25T08:07:53.388Z,5692.00
2022-07-25T08:08:53.360Z,5696.00
2022-07-25T08:09:53.342Z,5700.00
2022-07-25T08:10:58.411Z,5688.00
2022-07-25T08:11:53.360Z,5692.00
2022-07-25T08:12:53.330Z,5684.00
2022-07-25T08:13:53.249Z,5688.00
2022-07-25T08:14:53.231Z,5688.00
2022-07-25T08:15:53.272Z,5680.00
2022-07-25T08:16:53.202Z,5672.00
2022-07-25T08:17:53.213Z,5668.00
2022-07-25T08:18:53.201Z,5652.00
2022-07-25T08:19:53.112Z,5652.00
2022-07-25T08:20:53.090Z,5664.00
2022-07-25T08:21:53.065Z,5680.00
2022-07-25T08:22:56.360Z,5696.00
2022-07-25T08:23:53.080Z,5704.00
2022-07-25T08:24:53.083Z,5708.00
2022-07-25T08:25:52.978Z,5716.00
2022-07-25T08:26:53.686Z,5724.00
2022-07-25T08:27:52.935Z,5740.00
2022-07-25T08:29:17.060Z,5744.00
2022-07-25T08:29:52.892Z,5752.00
2022-07-25T08:30:53.157Z,5756.00
2022-07-25T08:31:52.913Z,5756.00
2022-07-25T08:32:52.827Z,5752.00
2022-07-25T08:33:53.674Z,5756.00
2022-07-25T08:34:52.867Z,5756.00
2022-07-25T08:35:52.752Z,5760.00
2022-07-25T08:36:52.839Z,5768.00
2022-07-25T08:37:52.704Z,5776.00
2022-07-25T08:38:52.748Z,5796.00
2022-07-25T08:39:52.664Z,5812.00
2022-07-25T08:40:52.642Z,5832.00
2022-07-25T08:41:52.629Z,5844.00
2022-07-25T08:42:52.654Z,5852.00
2022-07-25T08:43:52.640Z,5856.00
2022-07-25T08:44:52.610Z,5852.00
2022-07-25T08:45:52.531Z,5844.00
2022-07-25T08:46:52.559Z,5848.00
2022-07-25T08:47:52.492Z,5852.00
2022-07-25T08:48:52.584Z,5860.00
2022-07-25T08:49:52.444Z,5868.00
2022-07-25T08:50:52.516Z,5888.00
2022-07-25T08:51:52.401Z,5900.00
2022-07-25T08:53:00.892Z,5904.00
2022-07-25T08:53:52.387Z,5900.00
2022-07-25T08:54:52.332Z,5892.00
2022-07-25T08:55:52.308Z,5884.00
2022-07-25T08:56:52.346Z,5872.00
2022-07-25T08:57:52.264Z,5876.00
2022-07-25T08:58:52.243Z,5876.00
2022-07-25T08:59:52.229Z,5864.00
2022-07-25T09:00:52.229Z,5852.00
2022-07-25T09:01:52.285Z,5840.00
2022-07-25T09:02:52.264Z,5820.00
2022-07-25T09:03:52.140Z,5780.00
2022-07-25T09:04:52.118Z,5748.00
2022-07-25T09:05:52.112Z,5688.00
2022-07-25T09:06:52.092Z,5628.00
2022-07-25T09:07:52.114Z,5588.00
2022-07-25T09:08:52.090Z,5552.00
2022-07-25T09:09:52.008Z,5528.00
2022-07-25T09:10:52.005Z,5524.00
2022-07-25T09:11:51.967Z,5528.00
2022-07-25T09:12:52.002Z,5528.00
2022-07-25T09:13:51.921Z,5516.00
2022-07-25T09:14:51.951Z,5504.00
2022-07-25T09:15:51.926Z,5496.00
2022-07-25T09:16:51.861Z,5472.00
2022-07-25T09:17:51.841Z,5456.00
2022-07-25T09:18:51.875Z,5428.00
2022-07-25T09:19:51.799Z,5416.00
2022-07-25T09:20:51.770Z,5404.00
2022-07-25T09:21:51.753Z,5396.00
2022-07-25T09:22:51.733Z,5392.00
2022-07-25T09:23:51.909Z,5392.00
2022-07-25T09:24:51.698Z,5372.00
2022-07-25T09:25:51.670Z,5372.00
2022-07-25T09:26:51.652Z,5380.00
2022-07-25T09:27:51.628Z,5388.00
2022-07-25T09:28:51.609Z,5396.00
2022-07-25T09:29:51.736Z,5400.00
2022-07-25T09:30:51.595Z,5404.00
2022-07-25T09:31:51.541Z,5408.00
2022-07-25T09:32:51.524Z,5412.00
2022-07-25T09:33:51.505Z,5424.00
2022-07-25T09:34:51.544Z,5432.00
2022-07-25T09:35:51.772Z,5456.00
2022-07-25T09:36:51.442Z,5488.00
2022-07-25T09:37:53.089Z,5540.00
2022-07-25T09:38:51.400Z,5580.00
2022-07-25T09:39:51.437Z,5608.00
2022-07-25T09:40:51.358Z,5628.00
2022-07-25T09:41:51.384Z,5648.00
2022-07-25T09:42:51.320Z,5660.00
2022-07-25T09:43:51.298Z,5684.00
2022-07-25T09:44:51.294Z,5708.00
2022-07-25T09:45:51.343Z,5720.00
2022-07-25T09:46:51.271Z,5724.00
2022-07-25T09:47:51.271Z,5724.00
2022-07-25T09:48:51.273Z,5736.00
2022-07-25T09:49:51.170Z,5724.00
2022-07-25T09:50:51.154Z,5704.00
2022-07-25T09:51:51.183Z,5696.00
2022-07-25T09:52:51.111Z,5696.00
2022-07-25T09:53:51.089Z,5656.00
2022-07-25T09:54:51.134Z,5640.00
2022-07-25T09:55:51.049Z,5648.00
2022-07-25T09:56:51.278Z,5680.00
2022-07-25T09:57:51.121Z,5724.00
2022-07-25T09:58:51.000Z,5732.00
2022-07-25T09:59:50.968Z,5716.00
2022-07-25T10:00:50.952Z,5700.00
2022-07-25T10:01:50.992Z,5700.00
2022-07-25T10:02:50.948Z,5664.00
2022-07-25T10:03:50.953Z,5644.00
2022-07-25T10:04:50.868Z,5628.00
2022-07-25T10:05:50.858Z,5660.00
2022-07-25T10:06:50.831Z,5652.00
2022-07-25T10:07:50.818Z,5664.00
2022-07-25T10:08:50.957Z,5688.00
2022-07-25T10:09:50.783Z,5696.00
2022-07-25T10:10:50.748Z,5692.00
2022-07-25T10:11:50.730Z,5728.00
2022-07-25T10:12:50.705Z,5792.00
2022-07-25T10:13:50.691Z,5824.00
2022-07-25T10:14:50.763Z,5844.00
2022-07-25T10:15:50.649Z,5844.00
2022-07-25T10:16:50.699Z,5788.00
2022-07-25T10:17:50.605Z,5740.00
2022-07-25T10:18:50.595Z,5744.00
2022-07-25T10:19:55.452Z,5740.00
2022-07-25T10:20:50.610Z,5688.00
2022-07-25T10:21:50.525Z,5640.00
2022-07-25T10:22:58.457Z,5580.00
2022-07-25T10:23:50.485Z,5572.00
2022-07-25T10:24:50.471Z,5568.00
2022-07-25T10:25:50.513Z,5544.00
2022-07-25T10:26:50.488Z,5488.00
2022-07-25T10:27:50.415Z,5480.00
2022-07-25T10:28:50.392Z,5512.00
2022-07-25T10:29:50.374Z,5536.00
2022-07-25T10:30:50.390Z,5612.00
2022-07-25T10:31:51.905Z,5728.00
2022-07-25T10:32:50.315Z,5736.00
2022-07-25T10:33:50.297Z,5640.00
2022-07-25T10:34:50.281Z,5556.00
2022-07-25T10:35:50.276Z,5524.00
2022-07-25T10:36:53.953Z,5520.00
2022-07-25T10:37:50.228Z,5512.00
2022-07-25T10:38:50.746Z,5516.00
2022-07-25T10:39:51.121Z,5500.00
2022-07-25T10:40:50.181Z,5496.00
2022-07-25T10:41:50.152Z,5520.00
2022-07-25T10:42:50.218Z,5664.00
2022-07-25T10:43:50.118Z,5812.00
2022-07-25T10:44:50.095Z,5836.00
2022-07-25T10:45:50.085Z,5816.00
2022-07-25T10:46:50.641Z,5800.00
2022-07-25T10:47:50.041Z,5828.00
2022-07-25T10:48:50.167Z,5868.00
2022-07-25T10:50:13.901Z,5924.00
2022-07-25T10:50:57.118Z,5900.00
2022-07-25T10:51:49.974Z,5660.00
2022-07-25T10:52:49.936Z,4964.00
2022-07-25T10:53:49.919Z,4704.00
2022-07-25T10:54:50.016Z,4728.00
2022-07-25T10:56:05.174Z,5788.00
2022-07-25T10:56:49.890Z,7428.00
2022-07-25T10:58:15.323Z,7872.00
2022-07-25T10:58:49.851Z,7212.00
2022-07-25T10:59:49.812Z,6696.00
2022-07-25T11:00:49.963Z,6396.00
2022-07-25T11:01:49.848Z,5928.00
2022-07-25T11:02:49.873Z,5820.00
2022-07-25T11:03:49.745Z,6004.00
2022-07-25T11:04:49.721Z,5980.00
2022-07-25T11:05:49.709Z,6052.00
2022-07-25T11:06:49.826Z,5468.00
2022-07-25T11:08:11.274Z,5612.00
2022-07-25T11:08:50.242Z,6036.00
2022-07-25T11:09:49.624Z,6872.00
2022-07-25T11:10:49.614Z,6320.00
2022-07-25T11:11:49.572Z,5928.00
2022-07-25T11:12:49.648Z,5948.00
2022-07-25T11:13:50.323Z,5832.00
2022-07-25T11:14:50.130Z,7188.00
2022-07-25T11:15:49.529Z,8284.00
2022-07-25T11:16:50.286Z,8156.00
2022-07-25T11:17:49.468Z,7764.00
2022-07-25T11:18:49.600Z,7492.00
2022-07-25T11:19:50.133Z,7112.00
2022-07-25T11:20:49.416Z,7900.00
2022-07-25T11:21:49.395Z,8452.00
2022-07-25T11:22:49.383Z,8724.00
2022-07-25T11:23:49.360Z,8920.00
2022-07-25T11:24:49.873Z,8572.00
2022-07-25T11:25:49.332Z,8252.00
2022-07-25T11:26:49.296Z,7596.00
2022-07-25T11:27:49.289Z,7000.00
2022-07-25T11:28:49.264Z,6608.00
2022-07-25T11:29:49.241Z,7244.00
2022-07-25T11:30:49.421Z,8448.00
2022-07-25T11:31:50.182Z,10216.00
2022-07-25T11:32:49.212Z,11324.00
2022-07-25T11:33:49.200Z,11708.00
2022-07-25T11:34:49.152Z,11932.00
2022-07-25T11:35:49.144Z,11848.00
2022-07-25T11:36:49.344Z,12004.00
2022-07-25T11:37:49.107Z,13208.00
2022-07-25T11:38:49.100Z,12580.00
2022-07-25T11:39:49.064Z,11384.00
2022-07-25T11:40:49.092Z,9904.00
2022-07-25T11:41:49.038Z,8568.00
2022-07-25T11:42:49.086Z,7796.00
2022-07-25T11:43:49.023Z,6760.00
2022-07-25T11:44:48.993Z,7208.00
2022-07-25T11:45:49.015Z,7184.00
2022-07-25T11:46:48.985Z,7100.00
2022-07-25T11:47:49.125Z,7244.00
2022-07-25T11:48:48.945Z,7328.00
2022-07-25T11:49:49.648Z,7200.00
2022-07-25T11:50:48.879Z,7272.00
2022-07-25T11:51:49.798Z,7340.00
2022-07-25T11:52:49.651Z,7208.00
2022-07-25T11:53:49.047Z,7816.00
2022-07-25T11:54:48.842Z,7260.00
2022-07-25T11:55:48.816Z,7556.00
2022-07-25T11:56:48.769Z,7364.00
2022-07-25T11:57:48.793Z,7472.00
2022-07-25T11:58:48.756Z,7408.00
2022-07-25T11:59:48.804Z,7128.00
2022-07-25T12:00:48.716Z,6640.00
2022-07-25T12:01:48.787Z,6620.00
2022-07-25T12:02:48.772Z,6940.00
2022-07-25T12:03:48.689Z,6948.00
2022-07-25T12:04:48.734Z,7188.00
2022-07-25T12:05:48.644Z,7120.00
2022-07-25T12:06:48.634Z,6716.00
2022-07-25T12:07:48.592Z,6376.00
2022-07-25T12:08:48.617Z,6228.00
2022-07-25T12:09:48.571Z,6092.00
2022-07-25T12:10:48.615Z,5916.00
2022-07-25T12:11:48.541Z,6072.00
2022-07-25T12:12:49.661Z,7212.00
2022-07-25T12:13:48.596Z,7716.00
2022-07-25T12:14:49.178Z,7904.00
2022-07-25T12:15:48.473Z,7608.00
2022-07-25T12:16:50.258Z,6952.00
2022-07-25T12:17:48.412Z,6604.00
2022-07-25T12:18:49.157Z,6444.00
2022-07-25T12:19:48.402Z,6340.00
2022-07-25T12:20:48.365Z,6224.00
2022-07-25T12:21:48.351Z,6172.00
2022-07-25T12:22:48.446Z,6212.00